sensor_id;sensor_type;location;lat;lon;timestamp;temperature;humidity
18456;DHT22;9357;49.900;8.208;2023-03-01T00:00:04;-0.10;99.90
18456;DHT22;9357;49.900;8.208;2023-03-01T00:01:38;-0.10;99.90
18456;DHT22;9357;49.900;8.208;2023-03-01T00:03:11;-0.10;99.90
18456;DHT22;9357;49.900;8.208;2023-03-01T00:04:44;-0.10;99.90
18456;DHT22;9357;49.900;8.208;2023-03-01T00:06:17;-0.10;99.90
18456;DHT22;9357;49.900;8.208;2023-03-01T00:07:51;-0.10;99.90
18456;DHT22;9357;49.900;8.208;2023-03-01T00:09:24;-0.10;99.90
18456;DHT22;9357;49.900;8.208;2023-03-01T00:11:01;-0.10;99.90
18456;DHT22;9357;49.900;8.208;2023-03-01T00:12:33;0.00;99.90
18456;DHT22;9357;49.900;8.208;2023-03-01T00:14:08;-0.10;99.90
18456;DHT22;9357;49.900;8.208;2023-03-01T00:15:41;0.00;99.90
18456;DHT22;9357;49.900;8.208;2023-03-01T00:17:13;0.00;99.90
18456;DHT22;9357;49.900;8.208;2023-03-01T00:18:45;0.00;99.90
18456;DHT22;9357;49.900;8.208;2023-03-01T00:20:19;-0.10;99.90
18456;DHT22;9357;49.900;8.208;2023-03-01T00:21:52;-0.10;99.90
18456;DHT22;9357;49.900;8.208;2023-03-01T00:23:25;-0.10;99.90
18456;DHT22;9357;49.900;8.208;2023-03-01T00:24:58;-0.10;99.90
18456;DHT22;9357;49.900;8.208;2023-03-01T00:26:31;-0.10;99.90
18456;DHT22;9357;49.900;8.208;2023-03-01T00:28:04;-0.10;99.90
18456;DHT22;9357;49.900;8.208;2023-03-01T00:29:36;-0.10;99.90
18456;DHT22;9357;49.900;8.208;2023-03-01T00:31:11;-0.10;99.90
18456;DHT22;9357;49.900;8.208;2023-03-01T00:32:44;-0.10;99.90
18456;DHT22;9357;49.900;8.208;2023-03-01T00:34:17;-0.10;99.90
18456;DHT22;9357;49.900;8.208;2023-03-01T00:35:51;-0.20;99.90
18456;DHT22;9357;49.900;8.208;2023-03-01T00:37:24;-0.20;99.90
18456;DHT22;9357;49.900;8.208;2023-03-01T00:38:56;-0.20;99.90
18456;DHT22;9357;49.900;8.208;2023-03-01T00:40:30;-0.20;99.90
18456;DHT22;9357;49.900;8.208;2023-03-01T00:42:04;-0.20;99.90
18456;DHT22;9357;49.900;8.208;2023-03-01T00:43:37;-0.20;99.90
18456;DHT22;9357;49.900;8.208;2023-03-01T00:45:10;-0.20;99.90
18456;DHT22;9357;49.900;8.208;2023-03-01T00:46:44;-0.20;99.90
18456;DHT22;9357;49.900;8.208;2023-03-01T00:48:17;-0.20;99.90
18456;DHT22;9357;49.900;8.208;2023-03-01T00:49:49;-0.20;99.90
18456;DHT22;9357;49.900;8.208;2023-03-01T00:51:25;-0.20;99.90
18456;DHT22;9357;49.900;8.208;2023-03-01T00:52:58;-0.20;99.90
18456;DHT22;9357;49.900;8.208;2023-03-01T00:54:30;-0.10;99.90
18456;DHT22;9357;49.900;8.208;2023-03-01T00:56:05;-0.20;99.90
18456;DHT22;9357;49.900;8.208;2023-03-01T00:57:37;-0.10;99.90
18456;DHT22;9357;49.900;8.208;2023-03-01T00:59:09;-0.10;99.90
18456;DHT22;9357;49.900;8.208;2023-03-01T01:00:42;-0.10;99.90
18456;DHT22;9357;49.900;8.208;2023-03-01T01:02:14;-0.10;99.90
18456;DHT22;9357;49.900;8.208;2023-03-01T01:03:47;-0.10;99.90
18456;DHT22;9357;49.900;8.208;2023-03-01T01:05:21;-0.10;99.90
18456;DHT22;9357;49.900;8.208;2023-03-01T01:06:55;-0.10;99.90
18456;DHT22;9357;49.900;8.208;2023-03-01T01:08:27;-0.10;99.90
18456;DHT22;9357;49.900;8.208;2023-03-01T01:09:59;-0.10;99.90
18456;DHT22;9357;49.900;8.208;2023-03-01T01:11:33;-0.10;99.90
18456;DHT22;9357;49.900;8.208;2023-03-01T01:13:06;-0.10;99.90
18456;DHT22;9357;49.900;8.208;2023-03-01T01:14:38;-0.10;99.90
18456;DHT22;9357;49.900;8.208;2023-03-01T01:16:11;0.00;99.90
18456;DHT22;9357;49.900;8.208;2023-03-01T01:17:43;-0.10;99.90
18456;DHT22;9357;49.900;8.208;2023-03-01T01:19:16;0.00;99.90
18456;DHT22;9357;49.900;8.208;2023-03-01T01:20:48;-0.10;99.90
18456;DHT22;9357;49.900;8.208;2023-03-01T01:22:21;-0.10;99.90
18456;DHT22;9357;49.900;8.208;2023-03-01T01:23:55;-0.10;99.90
18456;DHT22;9357;49.900;8.208;2023-03-01T01:25:28;-0.10;99.90
18456;DHT22;9357;49.900;8.208;2023-03-01T01:27:00;-0.10;99.90
18456;DHT22;9357;49.900;8.208;2023-03-01T01:28:33;0.00;99.90
18456;DHT22;9357;49.900;8.208;2023-03-01T01:30:06;-0.10;99.90
18456;DHT22;9357;49.900;8.208;2023-03-01T01:31:41;-0.10;99.90
18456;DHT22;9357;49.900;8.208;2023-03-01T01:33:13;0.00;99.90
18456;DHT22;9357;49.900;8.208;2023-03-01T01:34:45;0.00;99.90
18456;DHT22;9357;49.900;8.208;2023-03-01T01:36:18;-0.10;99.90
18456;DHT22;9357;49.900;8.208;2023-03-01T01:37:52;-0.10;99.90
18456;DHT22;9357;49.900;8.208;2023-03-01T01:39:25;-0.10;99.90
18456;DHT22;9357;49.900;8.208;2023-03-01T01:40:58;-0.10;99.90
18456;DHT22;9357;49.900;8.208;2023-03-01T01:42:30;-0.10;99.90
18456;DHT22;9357;49.900;8.208;2023-03-01T01:44:12;-0.10;99.90
18456;DHT22;9357;49.900;8.208;2023-03-01T01:45:45;0.00;99.90
18456;DHT22;9357;49.900;8.208;2023-03-01T01:47:20;-0.10;99.90
18456;DHT22;9357;49.900;8.208;2023-03-01T01:48:56;-0.10;99.90
18456;DHT22;9357;49.900;8.208;2023-03-01T01:50:30;-0.10;99.90
18456;DHT22;9357;49.900;8.208;2023-03-01T01:52:13;-0.10;99.90
18456;DHT22;9357;49.900;8.208;2023-03-01T01:53:51;-0.10;99.90
18456;DHT22;9357;49.900;8.208;2023-03-01T01:55:26;-0.10;99.90
18456;DHT22;9357;49.900;8.208;2023-03-01T01:57:03;-0.20;99.90
18456;DHT22;9357;49.900;8.208;2023-03-01T01:58:38;-0.20;99.90
18456;DHT22;9357;49.900;8.208;2023-03-01T02:00:15;-0.20;99.90
18456;DHT22;9357;49.900;8.208;2023-03-01T02:01:48;-0.30;99.90
18456;DHT22;9357;49.900;8.208;2023-03-01T02:03:24;-0.30;99.90
18456;DHT22;9357;49.900;8.208;2023-03-01T02:05:03;-0.40;99.90
18456;DHT22;9357;49.900;8.208;2023-03-01T02:06:46;-0.40;99.90
18456;DHT22;9357;49.900;8.208;2023-03-01T02:08:25;-0.40;99.90
18456;DHT22;9357;49.900;8.208;2023-03-01T02:10:00;-0.30;99.90
18456;DHT22;9357;49.900;8.208;2023-03-01T02:11:33;-0.40;99.90
18456;DHT22;9357;49.900;8.208;2023-03-01T02:13:06;-0.40;99.90
18456;DHT22;9357;49.900;8.208;2023-03-01T02:14:39;-0.40;99.90
18456;DHT22;9357;49.900;8.208;2023-03-01T02:16:13;-0.40;99.90
18456;DHT22;9357;49.900;8.208;2023-03-01T02:17:46;-0.50;99.90
18456;DHT22;9357;49.900;8.208;2023-03-01T02:19:36;-0.50;99.90
18456;DHT22;9357;49.900;8.208;2023-03-01T02:21:25;-0.50;99.90
18456;DHT22;9357;49.900;8.208;2023-03-01T02:23:00;-0.50;99.90
18456;DHT22;9357;49.900;8.208;2023-03-01T02:24:38;-0.60;99.90
18456;DHT22;9357;49.900;8.208;2023-03-01T02:26:19;-0.50;99.90
18456;DHT22;9357;49.900;8.208;2023-03-01T02:27:59;-0.50;99.90
18456;DHT22;9357;49.900;8.208;2023-03-01T02:29:36;-0.50;99.90
18456;DHT22;9357;49.900;8.208;2023-03-01T02:31:10;-0.50;99.90
18456;DHT22;9357;49.900;8.208;2023-03-01T02:33:12;-0.40;99.90
18456;DHT22;9357;49.900;8.208;2023-03-01T02:34:45;-0.50;99.90
18456;DHT22;9357;49.900;8.208;2023-03-01T02:36:20;-0.40;99.90
18456;DHT22;9357;49.900;8.208;2023-03-01T02:37:54;-0.50;99.90
18456;DHT22;9357;49.900;8.208;2023-03-01T02:39:31;-0.50;99.90
18456;DHT22;9357;49.900;8.208;2023-03-01T02:41:05;-0.40;99.90
18456;DHT22;9357;49.900;8.208;2023-03-01T02:42:45;-0.40;99.90
18456;DHT22;9357;49.900;8.208;2023-03-01T02:44:20;-0.50;99.90
18456;DHT22;9357;49.900;8.208;2023-03-01T02:45:58;-0.40;99.90
18456;DHT22;9357;49.900;8.208;2023-03-01T02:47:29;-0.40;99.90
18456;DHT22;9357;49.900;8.208;2023-03-01T02:49:19;-0.40;99.90
18456;DHT22;9357;49.900;8.208;2023-03-01T02:52:47;-0.30;99.90
18456;DHT22;9357;49.900;8.208;2023-03-01T02:54:28;-0.30;99.90
18456;DHT22;9357;49.900;8.208;2023-03-01T02:56:02;-0.30;99.90
18456;DHT22;9357;49.900;8.208;2023-03-01T02:57:36;-0.30;99.90
18456;DHT22;9357;49.900;8.208;2023-03-01T02:59:10;-0.30;99.90
18456;DHT22;9357;49.900;8.208;2023-03-01T03:00:43;-0.30;99.90
18456;DHT22;9357;49.900;8.208;2023-03-01T03:02:21;-0.30;99.90
18456;DHT22;9357;49.900;8.208;2023-03-01T03:04:10;-0.30;99.90
18456;DHT22;9357;49.900;8.208;2023-03-01T03:05:43;-0.30;99.90
18456;DHT22;9357;49.900;8.208;2023-03-01T03:07:16;-0.30;99.90
18456;DHT22;9357;49.900;8.208;2023-03-01T03:08:48;-0.30;99.90
18456;DHT22;9357;49.900;8.208;2023-03-01T03:10:24;-0.30;99.90
18456;DHT22;9357;49.900;8.208;2023-03-01T03:11:58;-0.30;99.90
18456;DHT22;9357;49.900;8.208;2023-03-01T03:13:31;-0.30;99.90
18456;DHT22;9357;49.900;8.208;2023-03-01T03:15:04;-0.30;99.90
18456;DHT22;9357;49.900;8.208;2023-03-01T03:16:41;-0.30;99.90
18456;DHT22;9357;49.900;8.208;2023-03-01T03:18:17;-0.30;99.90
18456;DHT22;9357;49.900;8.208;2023-03-01T03:19:50;-0.30;99.90
18456;DHT22;9357;49.900;8.208;2023-03-01T03:21:23;-0.30;99.90
18456;DHT22;9357;49.900;8.208;2023-03-01T03:22:56;-0.30;99.90
18456;DHT22;9357;49.900;8.208;2023-03-01T03:24:29;-0.30;99.90
18456;DHT22;9357;49.900;8.208;2023-03-01T03:26:09;-0.30;99.90
18456;DHT22;9357;49.900;8.208;2023-03-01T03:27:46;-0.30;99.90
18456;DHT22;9357;49.900;8.208;2023-03-01T03:29:18;-0.30;99.90
18456;DHT22;9357;49.900;8.208;2023-03-01T03:30:50;-0.30;99.90
18456;DHT22;9357;49.900;8.208;2023-03-01T03:32:22;-0.30;99.90
18456;DHT22;9357;49.900;8.208;2023-03-01T03:33:56;-0.30;99.90
18456;DHT22;9357;49.900;8.208;2023-03-01T03:35:31;-0.30;99.90
18456;DHT22;9357;49.900;8.208;2023-03-01T03:37:04;-0.30;99.90
18456;DHT22;9357;49.900;8.208;2023-03-01T03:38:57;-0.30;99.90
18456;DHT22;9357;49.900;8.208;2023-03-01T03:40:32;-0.30;99.90
18456;DHT22;9357;49.900;8.208;2023-03-01T03:42:04;-0.30;99.90
18456;DHT22;9357;49.900;8.208;2023-03-01T03:43:39;-0.30;99.90
18456;DHT22;9357;49.900;8.208;2023-03-01T03:45:14;-0.30;99.90
18456;DHT22;9357;49.900;8.208;2023-03-01T03:46:45;-0.30;99.90
18456;DHT22;9357;49.900;8.208;2023-03-01T03:48:19;-0.30;99.90
18456;DHT22;9357;49.900;8.208;2023-03-01T03:49:53;-0.30;99.90
18456;DHT22;9357;49.900;8.208;2023-03-01T03:51:26;-0.30;99.90
18456;DHT22;9357;49.900;8.208;2023-03-01T03:53:00;-0.30;99.90
18456;DHT22;9357;49.900;8.208;2023-03-01T03:54:33;-0.30;99.90
18456;DHT22;9357;49.900;8.208;2023-03-01T03:56:06;-0.30;99.90
18456;DHT22;9357;49.900;8.208;2023-03-01T03:57:40;-0.30;99.90
18456;DHT22;9357;49.900;8.208;2023-03-01T03:59:12;-0.30;99.90
18456;DHT22;9357;49.900;8.208;2023-03-01T04:00:47;-0.30;99.90
18456;DHT22;9357;49.900;8.208;2023-03-01T04:02:19;-0.30;99.90
18456;DHT22;9357;49.900;8.208;2023-03-01T04:03:54;-0.30;99.90
18456;DHT22;9357;49.900;8.208;2023-03-01T04:05:29;-0.30;99.90
18456;DHT22;9357;49.900;8.208;2023-03-01T04:07:01;-0.20;99.90
18456;DHT22;9357;49.900;8.208;2023-03-01T04:08:33;-0.20;99.90
18456;DHT22;9357;49.900;8.208;2023-03-01T04:10:09;-0.20;99.90
18456;DHT22;9357;49.900;8.208;2023-03-01T04:11:41;-0.20;99.90
18456;DHT22;9357;49.900;8.208;2023-03-01T04:13:17;-0.10;99.90
18456;DHT22;9357;49.900;8.208;2023-03-01T04:14:51;-0.10;99.90
18456;DHT22;9357;49.900;8.208;2023-03-01T04:16:24;-0.10;99.90
18456;DHT22;9357;49.900;8.208;2023-03-01T04:17:57;-0.10;99.90
18456;DHT22;9357;49.900;8.208;2023-03-01T04:19:30;-0.10;99.90
18456;DHT22;9357;49.900;8.208;2023-03-01T04:21:08;-0.10;99.90
18456;DHT22;9357;49.900;8.208;2023-03-01T04:22:43;-0.10;99.90
18456;DHT22;9357;49.900;8.208;2023-03-01T04:24:18;-0.10;99.90
18456;DHT22;9357;49.900;8.208;2023-03-01T04:25:52;-0.10;99.90
18456;DHT22;9357;49.900;8.208;2023-03-01T04:27:26;-0.10;99.90
18456;DHT22;9357;49.900;8.208;2023-03-01T04:28:59;-0.20;99.90
18456;DHT22;9357;49.900;8.208;2023-03-01T04:30:32;-0.10;99.90
18456;DHT22;9357;49.900;8.208;2023-03-01T04:32:07;-0.10;99.90
18456;DHT22;9357;49.900;8.208;2023-03-01T04:33:40;-0.10;99.90
18456;DHT22;9357;49.900;8.208;2023-03-01T04:35:13;-0.10;99.90
18456;DHT22;9357;49.900;8.208;2023-03-01T04:36:48;-0.10;99.90
18456;DHT22;9357;49.900;8.208;2023-03-01T04:38:20;-0.10;99.90
18456;DHT22;9357;49.900;8.208;2023-03-01T04:39:53;-0.10;99.90
18456;DHT22;9357;49.900;8.208;2023-03-01T04:41:26;0.00;99.90
18456;DHT22;9357;49.900;8.208;2023-03-01T04:42:59;0.00;99.90
18456;DHT22;9357;49.900;8.208;2023-03-01T04:44:30;0.00;99.90
18456;DHT22;9357;49.900;8.208;2023-03-01T04:46:05;0.00;99.90
18456;DHT22;9357;49.900;8.208;2023-03-01T04:47:40;0.00;99.90
18456;DHT22;9357;49.900;8.208;2023-03-01T04:49:14;0.00;99.90
18456;DHT22;9357;49.900;8.208;2023-03-01T04:50:47;0.00;99.90
18456;DHT22;9357;49.900;8.208;2023-03-01T04:52:21;0.10;99.90
18456;DHT22;9357;49.900;8.208;2023-03-01T04:53:54;0.10;99.90
18456;DHT22;9357;49.900;8.208;2023-03-01T04:55:27;0.10;99.90
18456;DHT22;9357;49.900;8.208;2023-03-01T04:56:59;0.10;99.90
18456;DHT22;9357;49.900;8.208;2023-03-01T04:58:33;0.10;99.90
18456;DHT22;9357;49.900;8.208;2023-03-01T05:00:07;0.10;99.90
18456;DHT22;9357;49.900;8.208;2023-03-01T05:01:51;0.10;99.90
18456;DHT22;9357;49.900;8.208;2023-03-01T05:03:26;0.10;99.90
18456;DHT22;9357;49.900;8.208;2023-03-01T05:05:00;0.00;99.90
18456;DHT22;9357;49.900;8.208;2023-03-01T05:06:32;0.00;99.90
18456;DHT22;9357;49.900;8.208;2023-03-01T05:08:08;0.00;99.90
18456;DHT22;9357;49.900;8.208;2023-03-01T05:09:40;0.00;99.90
18456;DHT22;9357;49.900;8.208;2023-03-01T05:11:13;0.00;99.90
18456;DHT22;9357;49.900;8.208;2023-03-01T05:12:46;0.00;99.90
18456;DHT22;9357;49.900;8.208;2023-03-01T05:14:18;-0.10;99.90
18456;DHT22;9357;49.900;8.208;2023-03-01T05:15:54;-0.10;99.90
18456;DHT22;9357;49.900;8.208;2023-03-01T05:17:26;-0.10;99.90
18456;DHT22;9357;49.900;8.208;2023-03-01T05:18:59;-0.10;99.90
18456;DHT22;9357;49.900;8.208;2023-03-01T05:20:32;-0.10;99.90
18456;DHT22;9357;49.900;8.208;2023-03-01T05:22:07;-0.10;99.90
18456;DHT22;9357;49.900;8.208;2023-03-01T05:23:42;-0.10;99.90
18456;DHT22;9357;49.900;8.208;2023-03-01T05:25:14;-0.10;99.90
18456;DHT22;9357;49.900;8.208;2023-03-01T05:26:48;-0.20;99.90
18456;DHT22;9357;49.900;8.208;2023-03-01T05:28:23;-0.10;99.90
18456;DHT22;9357;49.900;8.208;2023-03-01T05:29:56;-0.10;99.90
18456;DHT22;9357;49.900;8.208;2023-03-01T05:31:28;-0.10;99.90
18456;DHT22;9357;49.900;8.208;2023-03-01T05:33:02;-0.10;99.90
18456;DHT22;9357;49.900;8.208;2023-03-01T05:34:35;-0.10;99.90
18456;DHT22;9357;49.900;8.208;2023-03-01T05:36:09;-0.10;99.90
18456;DHT22;9357;49.900;8.208;2023-03-01T05:37:43;-0.10;99.90
18456;DHT22;9357;49.900;8.208;2023-03-01T05:39:17;-0.20;99.90
18456;DHT22;9357;49.900;8.208;2023-03-01T05:40:49;-0.20;99.90
18456;DHT22;9357;49.900;8.208;2023-03-01T05:42:22;-0.20;99.90
18456;DHT22;9357;49.900;8.208;2023-03-01T05:43:54;-0.20;99.90
18456;DHT22;9357;49.900;8.208;2023-03-01T05:45:27;-0.20;99.90
18456;DHT22;9357;49.900;8.208;2023-03-01T05:47:00;-0.20;99.90
18456;DHT22;9357;49.900;8.208;2023-03-01T05:48:32;-0.20;99.90
18456;DHT22;9357;49.900;8.208;2023-03-01T05:50:05;-0.20;99.90
18456;DHT22;9357;49.900;8.208;2023-03-01T05:51:38;-0.20;99.90
18456;DHT22;9357;49.900;8.208;2023-03-01T05:53:13;-0.20;99.90
18456;DHT22;9357;49.900;8.208;2023-03-01T05:54:47;-0.20;99.90
18456;DHT22;9357;49.900;8.208;2023-03-01T05:56:21;-0.20;99.90
18456;DHT22;9357;49.900;8.208;2023-03-01T05:57:54;-0.20;99.90
18456;DHT22;9357;49.900;8.208;2023-03-01T05:59:27;-0.20;99.90
18456;DHT22;9357;49.900;8.208;2023-03-01T06:00:59;-0.20;99.90
18456;DHT22;9357;49.900;8.208;2023-03-01T06:02:32;-0.20;99.90
18456;DHT22;9357;49.900;8.208;2023-03-01T06:04:05;-0.20;99.90
18456;DHT22;9357;49.900;8.208;2023-03-01T06:05:38;-0.30;99.90
18456;DHT22;9357;49.900;8.208;2023-03-01T06:07:11;-0.20;99.90
18456;DHT22;9357;49.900;8.208;2023-03-01T06:08:43;-0.30;99.90
18456;DHT22;9357;49.900;8.208;2023-03-01T06:10:17;-0.20;99.90
18456;DHT22;9357;49.900;8.208;2023-03-01T06:11:51;-0.20;99.90
18456;DHT22;9357;49.900;8.208;2023-03-01T06:13:24;-0.20;99.90
18456;DHT22;9357;49.900;8.208;2023-03-01T06:14:57;-0.20;99.90
18456;DHT22;9357;49.900;8.208;2023-03-01T06:16:29;-0.20;99.90
18456;DHT22;9357;49.900;8.208;2023-03-01T06:18:02;-0.20;99.90
18456;DHT22;9357;49.900;8.208;2023-03-01T06:19:35;-0.20;99.90
18456;DHT22;9357;49.900;8.208;2023-03-01T06:21:08;-0.20;99.90
18456;DHT22;9357;49.900;8.208;2023-03-01T06:22:41;-0.20;99.90
18456;DHT22;9357;49.900;8.208;2023-03-01T06:24:13;-0.20;99.90
18456;DHT22;9357;49.900;8.208;2023-03-01T06:25:47;-0.20;99.90
18456;DHT22;9357;49.900;8.208;2023-03-01T06:27:19;-0.20;99.90
18456;DHT22;9357;49.900;8.208;2023-03-01T06:28:52;-0.20;99.90
18456;DHT22;9357;49.900;8.208;2023-03-01T06:30:26;-0.20;99.90
18456;DHT22;9357;49.900;8.208;2023-03-01T06:31:58;-0.20;99.90
18456;DHT22;9357;49.900;8.208;2023-03-01T06:33:31;-0.20;99.90
18456;DHT22;9357;49.900;8.208;2023-03-01T06:35:05;-0.20;99.90
18456;DHT22;9357;49.900;8.208;2023-03-01T06:36:37;-0.10;99.90
18456;DHT22;9357;49.900;8.208;2023-03-01T06:38:10;-0.10;99.90
18456;DHT22;9357;49.900;8.208;2023-03-01T06:39:43;-0.10;99.90
18456;DHT22;9357;49.900;8.208;2023-03-01T06:41:17;0.00;99.90
18456;DHT22;9357;49.900;8.208;2023-03-01T06:42:50;-0.10;99.90
18456;DHT22;9357;49.900;8.208;2023-03-01T06:44:22;0.00;99.90
18456;DHT22;9357;49.900;8.208;2023-03-01T06:45:55;0.00;99.90
18456;DHT22;9357;49.900;8.208;2023-03-01T06:47:28;0.00;99.90
18456;DHT22;9357;49.900;8.208;2023-03-01T06:49:00;0.10;99.90
18456;DHT22;9357;49.900;8.208;2023-03-01T06:50:35;0.00;99.90
18456;DHT22;9357;49.900;8.208;2023-03-01T06:52:09;0.00;99.90
18456;DHT22;9357;49.900;8.208;2023-03-01T06:53:42;0.10;99.90
18456;DHT22;9357;49.900;8.208;2023-03-01T06:55:14;0.10;99.90
18456;DHT22;9357;49.900;8.208;2023-03-01T06:56:49;0.20;99.90
18456;DHT22;9357;49.900;8.208;2023-03-01T06:58:22;0.20;99.90
18456;DHT22;9357;49.900;8.208;2023-03-01T06:59:55;0.20;99.90
18456;DHT22;9357;49.900;8.208;2023-03-01T07:01:28;0.20;99.90
18456;DHT22;9357;49.900;8.208;2023-03-01T07:03:01;0.20;99.90
18456;DHT22;9357;49.900;8.208;2023-03-01T07:04:34;0.20;99.90
18456;DHT22;9357;49.900;8.208;2023-03-01T07:06:07;0.30;99.90
18456;DHT22;9357;49.900;8.208;2023-03-01T07:07:40;0.20;99.90
18456;DHT22;9357;49.900;8.208;2023-03-01T07:09:13;0.20;99.90
18456;DHT22;9357;49.900;8.208;2023-03-01T07:10:46;0.20;99.90
18456;DHT22;9357;49.900;8.208;2023-03-01T07:12:20;0.30;99.90
18456;DHT22;9357;49.900;8.208;2023-03-01T07:13:52;0.30;99.90
18456;DHT22;9357;49.900;8.208;2023-03-01T07:15:27;0.40;99.90
18456;DHT22;9357;49.900;8.208;2023-03-01T07:17:00;0.40;99.90
18456;DHT22;9357;49.900;8.208;2023-03-01T07:18:33;0.30;99.90
18456;DHT22;9357;49.900;8.208;2023-03-01T07:20:06;0.30;99.90
18456;DHT22;9357;49.900;8.208;2023-03-01T07:21:39;0.30;99.90
18456;DHT22;9357;49.900;8.208;2023-03-01T07:23:11;0.40;99.90
18456;DHT22;9357;49.900;8.208;2023-03-01T07:24:44;0.40;99.90
18456;DHT22;9357;49.900;8.208;2023-03-01T07:26:17;0.40;99.90
18456;DHT22;9357;49.900;8.208;2023-03-01T07:27:52;0.40;99.90
18456;DHT22;9357;49.900;8.208;2023-03-01T07:29:25;0.40;99.90
18456;DHT22;9357;49.900;8.208;2023-03-01T07:31:01;0.40;99.90
18456;DHT22;9357;49.900;8.208;2023-03-01T07:32:34;0.40;99.90
18456;DHT22;9357;49.900;8.208;2023-03-01T07:34:07;0.40;99.90
18456;DHT22;9357;49.900;8.208;2023-03-01T07:35:39;0.40;99.90
18456;DHT22;9357;49.900;8.208;2023-03-01T07:37:12;0.40;99.90
18456;DHT22;9357;49.900;8.208;2023-03-01T07:38:45;0.50;99.90
18456;DHT22;9357;49.900;8.208;2023-03-01T07:40:18;0.50;99.90
18456;DHT22;9357;49.900;8.208;2023-03-01T07:41:51;0.50;99.90
18456;DHT22;9357;49.900;8.208;2023-03-01T07:43:25;0.60;99.90
18456;DHT22;9357;49.900;8.208;2023-03-01T07:44:58;0.60;99.90
18456;DHT22;9357;49.900;8.208;2023-03-01T07:46:31;0.60;99.90
18456;DHT22;9357;49.900;8.208;2023-03-01T07:48:04;0.60;99.90
18456;DHT22;9357;49.900;8.208;2023-03-01T07:49:37;0.70;99.90
18456;DHT22;9357;49.900;8.208;2023-03-01T07:51:10;0.80;99.90
18456;DHT22;9357;49.900;8.208;2023-03-01T07:52:45;0.90;99.90
18456;DHT22;9357;49.900;8.208;2023-03-01T07:54:17;0.90;99.90
18456;DHT22;9357;49.900;8.208;2023-03-01T07:56:00;1.10;99.90
18456;DHT22;9357;49.900;8.208;2023-03-01T07:57:33;1.20;99.90
18456;DHT22;9357;49.900;8.208;2023-03-01T07:59:07;1.20;99.90
18456;DHT22;9357;49.900;8.208;2023-03-01T08:00:39;1.40;99.90
18456;DHT22;9357;49.900;8.208;2023-03-01T08:02:12;1.40;99.90
18456;DHT22;9357;49.900;8.208;2023-03-01T08:03:46;1.50;99.90
18456;DHT22;9357;49.900;8.208;2023-03-01T08:05:19;1.60;99.90
18456;DHT22;9357;49.900;8.208;2023-03-01T08:06:54;1.70;99.90
18456;DHT22;9357;49.900;8.208;2023-03-01T08:08:27;1.80;99.90
18456;DHT22;9357;49.900;8.208;2023-03-01T08:09:59;1.90;99.90
18456;DHT22;9357;49.900;8.208;2023-03-01T08:11:32;2.00;99.90
18456;DHT22;9357;49.900;8.208;2023-03-01T08:13:05;2.20;99.90
18456;DHT22;9357;49.900;8.208;2023-03-01T08:14:39;2.30;99.90
18456;DHT22;9357;49.900;8.208;2023-03-01T08:16:13;2.40;99.90
18456;DHT22;9357;49.900;8.208;2023-03-01T08:17:48;2.50;99.90
18456;DHT22;9357;49.900;8.208;2023-03-01T08:19:21;2.60;99.90
18456;DHT22;9357;49.900;8.208;2023-03-01T08:20:54;2.70;99.90
18456;DHT22;9357;49.900;8.208;2023-03-01T08:22:27;2.80;99.90
18456;DHT22;9357;49.900;8.208;2023-03-01T08:23:59;3.00;99.90
18456;DHT22;9357;49.900;8.208;2023-03-01T08:25:32;3.20;99.90
18456;DHT22;9357;49.900;8.208;2023-03-01T08:27:05;3.40;99.90
18456;DHT22;9357;49.900;8.208;2023-03-01T08:28:38;3.50;99.90
18456;DHT22;9357;49.900;8.208;2023-03-01T08:30:13;3.70;99.90
18456;DHT22;9357;49.900;8.208;2023-03-01T08:31:46;3.70;99.90
18456;DHT22;9357;49.900;8.208;2023-03-01T08:33:19;3.70;99.90
18456;DHT22;9357;49.900;8.208;2023-03-01T08:34:52;3.70;99.90
18456;DHT22;9357;49.900;8.208;2023-03-01T08:36:26;3.70;99.90
18456;DHT22;9357;49.900;8.208;2023-03-01T08:38:00;3.80;99.90
18456;DHT22;9357;49.900;8.208;2023-03-01T08:39:33;4.00;99.90
18456;DHT22;9357;49.900;8.208;2023-03-01T08:41:06;4.20;99.90
18456;DHT22;9357;49.900;8.208;2023-03-01T08:42:38;4.30;99.90
18456;DHT22;9357;49.900;8.208;2023-03-01T08:44:12;4.40;99.90
18456;DHT22;9357;49.900;8.208;2023-03-01T08:45:48;4.60;99.90
18456;DHT22;9357;49.900;8.208;2023-03-01T08:47:21;4.70;99.90
18456;DHT22;9357;49.900;8.208;2023-03-01T08:48:53;4.80;99.90
18456;DHT22;9357;49.900;8.208;2023-03-01T08:50:26;4.90;99.90
18456;DHT22;9357;49.900;8.208;2023-03-01T08:51:59;4.90;99.90
18456;DHT22;9357;49.900;8.208;2023-03-01T08:53:32;4.90;99.90
18456;DHT22;9357;49.900;8.208;2023-03-01T08:55:06;4.90;99.90
18456;DHT22;9357;49.900;8.208;2023-03-01T08:56:39;4.90;99.90
18456;DHT22;9357;49.900;8.208;2023-03-01T08:58:12;5.00;99.90
18456;DHT22;9357;49.900;8.208;2023-03-01T08:59:45;5.00;99.90
18456;DHT22;9357;49.900;8.208;2023-03-01T09:01:19;5.10;99.90
18456;DHT22;9357;49.900;8.208;2023-03-01T09:02:52;5.20;99.90
18456;DHT22;9357;49.900;8.208;2023-03-01T09:04:24;5.40;99.90
18456;DHT22;9357;49.900;8.208;2023-03-01T09:06:00;5.60;99.90
18456;DHT22;9357;49.900;8.208;2023-03-01T09:07:33;5.80;99.90
18456;DHT22;9357;49.900;8.208;2023-03-01T09:09:06;6.00;99.90
18456;DHT22;9357;49.900;8.208;2023-03-01T09:10:40;6.10;99.90
18456;DHT22;9357;49.900;8.208;2023-03-01T09:12:13;6.00;99.90
18456;DHT22;9357;49.900;8.208;2023-03-01T09:13:47;6.00;99.90
18456;DHT22;9357;49.900;8.208;2023-03-01T09:15:20;6.00;99.90
18456;DHT22;9357;49.900;8.208;2023-03-01T09:16:54;6.00;99.90
18456;DHT22;9357;49.900;8.208;2023-03-01T09:18:27;6.00;99.90
18456;DHT22;9357;49.900;8.208;2023-03-01T09:19:59;6.10;99.90
18456;DHT22;9357;49.900;8.208;2023-03-01T09:21:32;6.10;99.90
18456;DHT22;9357;49.900;8.208;2023-03-01T09:23:11;6.20;99.90
18456;DHT22;9357;49.900;8.208;2023-03-01T09:24:44;6.30;99.90
18456;DHT22;9357;49.900;8.208;2023-03-01T09:26:19;6.50;99.90
18456;DHT22;9357;49.900;8.208;2023-03-01T09:27:53;6.70;99.90
18456;DHT22;9357;49.900;8.208;2023-03-01T09:29:26;6.80;99.90
18456;DHT22;9357;49.900;8.208;2023-03-01T09:30:59;6.70;99.90
18456;DHT22;9357;49.900;8.208;2023-03-01T09:32:33;6.70;99.90
18456;DHT22;9357;49.900;8.208;2023-03-01T09:34:06;6.70;99.90
18456;DHT22;9357;49.900;8.208;2023-03-01T09:35:39;6.70;99.90
18456;DHT22;9357;49.900;8.208;2023-03-01T09:37:17;6.70;99.90
18456;DHT22;9357;49.900;8.208;2023-03-01T09:38:50;6.80;99.90
18456;DHT22;9357;49.900;8.208;2023-03-01T09:40:26;6.80;99.90
18456;DHT22;9357;49.900;8.208;2023-03-01T09:42:01;6.80;99.90
18456;DHT22;9357;49.900;8.208;2023-03-01T09:43:42;6.80;99.90
18456;DHT22;9357;49.900;8.208;2023-03-01T09:45:24;6.70;99.90
18456;DHT22;9357;49.900;8.208;2023-03-01T09:46:58;6.70;99.90
18456;DHT22;9357;49.900;8.208;2023-03-01T09:48:38;6.70;99.90
18456;DHT22;9357;49.900;8.208;2023-03-01T09:50:16;6.80;99.90
18456;DHT22;9357;49.900;8.208;2023-03-01T09:51:55;6.90;99.90
18456;DHT22;9357;49.900;8.208;2023-03-01T09:53:32;6.90;99.90
18456;DHT22;9357;49.900;8.208;2023-03-01T09:55:10;6.90;99.90
18456;DHT22;9357;49.900;8.208;2023-03-01T09:56:47;6.80;99.90
18456;DHT22;9357;49.900;8.208;2023-03-01T09:58:36;6.90;99.90
18456;DHT22;9357;49.900;8.208;2023-03-01T10:00:24;6.90;99.90
18456;DHT22;9357;49.900;8.208;2023-03-01T10:02:02;6.90;99.90
18456;DHT22;9357;49.900;8.208;2023-03-01T10:03:43;7.00;99.90
18456;DHT22;9357;49.900;8.208;2023-03-01T10:05:35;7.00;99.90
18456;DHT22;9357;49.900;8.208;2023-03-01T10:07:25;7.00;99.90
18456;DHT22;9357;49.900;8.208;2023-03-01T10:09:02;7.10;99.90
18456;DHT22;9357;49.900;8.208;2023-03-01T10:10:39;7.20;99.90